Weather reports worldwide

Advertisment
Concordia Sagittaria, Italy (16107): temperature & dewpoint: 13.01.2021 06:00:00 - 19.01.2021 06:00:00 (CET)Concordia Sagittaria, Italy (16107): wind speed: 13.01.2021 06:00:00 - 19.01.2021 06:00:00 (CET)Concordia Sagittaria, Italy (16107): wind direction: 13.01.2021 06:00:00 - 19.01.2021 06:00:00 (CET)Concordia Sagittaria, Italy (16107): reduced air pressure: 13.01.2021 06:00:00 - 19.01.2021 06:00:00 (CET)Concordia Sagittaria, Italy (16107): precipitation: 13.01.2021 06:00:00 - 19.01.2021 06:00:00 (CET)
Date & Time tt [°C] td [°C] ff [km/h] ff [kn] dd ppp [hPa] rr [mm]
19.01.2021 06:00:00 - - - - - - -
19.01.2021 05:00:00 -4,1 -5,5 0 0 N 1030,4 -
19.01.2021 04:00:00 -2,6 -4,0 4 2 WNW 1030,6 -
19.01.2021 03:00:00 -2,3 -3,7 4 2 NNW 1030,6 -
19.01.2021 02:00:00 -2,3 -3,7 4 2 N 1030,8 -
19.01.2021 01:00:00 -2,3 -3,7 4 2 N 1031,1 0,0
19.01.2021 00:00:00 -1,7 -3,1 4 2 NNW 1031,0 -
18.01.2021 23:00:00 -1,6 -3,0 4 2 W 1030,9 -
18.01.2021 22:00:00 -2,1 -3,5 2 1 WNW 1030,6 -
18.01.2021 21:00:00 -1,9 -3,3 2 1 WNW 1030,3 -
18.01.2021 20:00:00 -1,3 -3,4 0 0 N 1030,1 -
18.01.2021 19:00:00 0,4 -2,5 2 1 WNW 1030,1 0,0
18.01.2021 18:00:00 1,2 -3,2 2 1 W 1029,7 -
18.01.2021 17:00:00 3,5 -3,2 0 0 N 1029,2 -
18.01.2021 16:00:00 6,1 -1,6 2 1 NNW 1028,8 -
18.01.2021 15:00:00 5,6 -1,4 5 3 NE 1028,7 -
18.01.2021 14:00:00 5,4 -1,2 4 2 NE 1028,9 -
18.01.2021 13:00:00 4,4 -1,5 9 5 N 1029,3 0,0
18.01.2021 12:00:00 3,8 -1,4 8 4 N 1029,5 -
18.01.2021 11:00:00 2,7 -1,7 8 4 NNW 1029,8 -
18.01.2021 10:00:00 0,9 -2,0 9 5 NNW 1029,6 -
18.01.2021 09:00:00 -0,4 -2,5 9 5 NNW 1029,1 -
18.01.2021 08:00:00 -0,7 -3,1 4 2 NNW 1028,6 -
18.01.2021 07:00:00 -0,4 -3,1 9 5 N 1028,1 0,0
18.01.2021 06:00:00 -0,1 -2,8 9 5 N 1027,9 -
18.01.2021 05:00:00 -0,6 -3,0 4 2 NNW 1027,4 -
18.01.2021 04:00:00 -0,2 -2,9 4 2 NNW 1027,2 -
18.01.2021 03:00:00 -0,9 -3,3 8 4 N 1027,1 -
18.01.2021 02:00:00 -0,9 -3,1 9 5 NNE 1026,7 -
18.01.2021 01:00:00 -0,4 -2,3 5 3 NE 1026,3 0,0
18.01.2021 00:00:00 -1,1 -2,9 5 3 N 1026,0 -
17.01.2021 23:00:00 -0,9 -3,0 11 6 NNE 1025,4 -
17.01.2021 22:00:00 -0,3 -2,5 8 4 NNE 1024,6 -
17.01.2021 21:00:00 0,0 -2,7 8 4 N 1023,9 -
17.01.2021 20:00:00 0,5 -2,6 11 6 N 1023,2 -
17.01.2021 19:00:00 0,8 -2,1 5 3 NNW 1022,7 0,0
17.01.2021 18:00:00 1,2 -2,6 4 2 WNW 1021,8 -
17.01.2021 17:00:00 2,7 -2,3 5 3 NW 1020,8 -
17.01.2021 16:00:00 3,8 -2,3 5 3 NNW 1020,1 -
17.01.2021 15:00:00 4,4 -1,9 9 5 NW 1019,7 -
17.01.2021 14:00:00 3,9 -2,0 9 5 NNW 1019,7 -
17.01.2021 13:00:00 3,3 -1,9 8 4 N 1020,3 0,0
17.01.2021 12:00:00 2,9 -1,9 11 6 N 1020,8 -
17.01.2021 11:00:00 1,7 -2,1 11 6 N 1021,2 -
17.01.2021 10:00:00 0,5 -2,6 9 5 NNW 1020,9 -
17.01.2021 09:00:00 0,0 -2,6 9 5 NNW 1020,8 -
17.01.2021 08:00:00 -0,5 -2,7 9 5 NNE 1020,6 -
17.01.2021 07:00:00 -0,5 -2,7 9 5 N 1020,7 0,0
17.01.2021 06:00:00 -0,4 -2,5 8 4 N 1020,7 -
17.01.2021 05:00:00 -0,6 -2,1 5 3 N 1021,0 -
17.01.2021 04:00:00 -0,8 -2,3 5 3 NNW 1021,8 -
17.01.2021 03:00:00 -1,0 -2,5 4 2 N 1022,7 -
17.01.2021 02:00:00 -1,1 -2,6 5 3 NNW 1023,2 -
17.01.2021 01:00:00 -1,2 -2,7 4 2 N 1023,9 0,0
17.01.2021 00:00:00 -1,0 -2,5 4 2 NW 1024,7 -
16.01.2021 23:00:00 -1,0 -2,5 2 1 WNW 1024,9 -
16.01.2021 22:00:00 -0,6 -2,1 2 1 E 1025,3 -
16.01.2021 21:00:00 -1,0 -2,5 5 3 N 1025,6 -
16.01.2021 20:00:00 -1,0 -2,5 2 1 ESE 1025,8 -
16.01.2021 19:00:00 -0,8 -3,7 2 1 SSE 1025,7 0,0
16.01.2021 18:00:00 0,9 -4,0 2 1 SSW 1025,5 -
16.01.2021 17:00:00 3,7 -2,6 5 3 S 1025,5 -
16.01.2021 16:00:00 6,6 -1,9 9 5 S 1025,6 -
16.01.2021 15:00:00 6,8 -2,5 8 4 SW 1025,9 -
16.01.2021 14:00:00 7,1 -1,7 4 2 SW 1026,1 -
16.01.2021 13:00:00 6,8 -2,5 8 4 SW 1026,7 0,0
16.01.2021 12:00:00 4,4 -1,7 4 2 ENE 1027,7 -
16.01.2021 11:00:00 2,8 -2,0 4 2 NE 1028,2 -
16.01.2021 10:00:00 0,7 -1,9 4 2 N 1027,9 -
16.01.2021 09:00:00 -2,6 -4,0 2 1 WNW 1027,6 -
16.01.2021 08:00:00 -4,3 -5,7 2 1 NNE 1027,1 -
16.01.2021 07:00:00 -3,4 -4,8 4 2 N 1026,9 0,0
16.01.2021 06:00:00 -3,2 -4,6 4 2 NNE 1026,8 -
16.01.2021 05:00:00 -2,9 -4,6 4 2 N 1026,7 -
16.01.2021 04:00:00 -2,0 -3,9 5 3 NW 1026,5 -
16.01.2021 03:00:00 -2,3 -4,2 4 2 WNW 1026,5 -
16.01.2021 02:00:00 -1,7 -4,2 8 4 NNW 1026,2 -
16.01.2021 01:00:00 -1,3 -4,2 4 2 NW 1026,4 0,0
16.01.2021 00:00:00 -1,2 -4,4 9 5 N 1026,6 -
15.01.2021 23:00:00 -0,5 -4,3 5 3 ENE 1026,1 -
15.01.2021 22:00:00 -0,3 -3,9 9 5 ENE 1025,6 -
15.01.2021 21:00:00 -0,4 -3,8 11 6 E 1025,1 -
15.01.2021 20:00:00 0,7 -2,6 9 5 NE 1024,6 -
15.01.2021 19:00:00 0,8 -3,4 9 5 NE 1023,9 0,0
15.01.2021 18:00:00 0,6 -5,3 4 2 NE 1023,4 -
15.01.2021 17:00:00 3,1 -5,7 2 1 NW 1022,7 -
15.01.2021 16:00:00 6,0 -3,0 2 1 NNE 1022,2 -
15.01.2021 15:00:00 6,8 -2,7 13 7 NE 1021,9 -
15.01.2021 14:00:00 6,7 -2,8 15 8 NNE 1022,1 -
15.01.2021 13:00:00 6,0 -2,5 11 6 N 1022,7 0,0
15.01.2021 12:00:00 5,2 -2,0 13 7 NNE 1023,4 -
15.01.2021 11:00:00 3,0 -2,2 11 6 NNE 1023,5 -
15.01.2021 10:00:00 2,5 -2,5 9 5 N 1023,2 -
15.01.2021 09:00:00 2,0 -2,6 9 5 N 1022,7 -
15.01.2021 08:00:00 1,5 -2,9 11 6 N 1022,1 -
15.01.2021 07:00:00 1,4 -3,2 9 5 NNW 1021,9 0,0
15.01.2021 06:00:00 1,3 -2,9 8 4 N 1021,9 -
15.01.2021 05:00:00 1,6 -2,8 11 6 N 1021,8 -
15.01.2021 04:00:00 2,2 -2,6 5 3 NNE 1021,8 -
15.01.2021 03:00:00 3,5 -2,8 13 7 ENE 1021,6 -
15.01.2021 02:00:00 2,6 -3,6 4 2 E 1021,7 -
15.01.2021 01:00:00 2,6 -3,4 8 4 E 1021,9 0,0
15.01.2021 00:00:00 0,5 -4,6 4 2 E 1021,8 -
14.01.2021 23:00:00 1,5 -5,5 2 1 ESE 1021,5 -
14.01.2021 22:00:00 2,3 -4,1 4 2 NE 1021,0 -
14.01.2021 21:00:00 4,2 -4,9 8 4 S 1019,7 -
14.01.2021 20:00:00 5,9 -3,6 29 16 NE 1018,5 -
14.01.2021 19:00:00 5,8 -4,2 11 6 NE 1018,1 0,0
14.01.2021 18:00:00 6,6 -5,2 13 7 N 1017,5 -
14.01.2021 17:00:00 7,2 -4,4 11 6 NNE 1017,0 -
14.01.2021 16:00:00 9,8 -3,0 28 15 N 1015,9 -
14.01.2021 15:00:00 11,4 4,1 4 2 ESE 1015,0 -
14.01.2021 14:00:00 9,7 3,1 8 4 N 1014,8 -
14.01.2021 13:00:00 8,6 2,1 5 3 NNW 1014,7 0,0
14.01.2021 12:00:00 7,2 1,8 9 5 NNW 1014,4 -
14.01.2021 11:00:00 5,9 1,8 8 4 NNW 1014,2 -
14.01.2021 10:00:00 3,9 1,6 8 4 NW 1013,8 -
14.01.2021 09:00:00 1,1 -0,4 5 3 NW 1013,7 -
14.01.2021 08:00:00 0,0 -1,5 9 5 NNW 1013,4 -
14.01.2021 07:00:00 0,2 -1,3 5 3 NW 1013,7 0,0
14.01.2021 06:00:00 0,6 -0,9 5 3 N 1013,6 -
14.01.2021 05:00:00 0,3 -1,2 4 2 NNW 1014,2 -
14.01.2021 04:00:00 -0,4 -1,9 4 2 N 1015,1 -
14.01.2021 03:00:00 -0,7 -2,2 5 3 N 1016,2 -
14.01.2021 02:00:00 -1,0 -2,5 4 2 N 1017,1 -
14.01.2021 01:00:00 -0,8 -2,3 4 2 N 1018,1 0,0
14.01.2021 00:00:00 -0,6 -2,1 5 3 N 1019,3 -
13.01.2021 23:00:00 -0,8 -2,3 2 1 NW 1019,9 -
13.01.2021 22:00:00 -0,7 -2,2 4 2 WSW 1020,3 -
13.01.2021 21:00:00 -1,0 -2,5 0 0 N 1020,6 -
13.01.2021 20:00:00 -0,4 -1,9 0 0 N 1020,6 -
13.01.2021 19:00:00 0,3 -2,0 0 0 N 1020,4 0,0
13.01.2021 18:00:00 1,9 -2,1 2 1 SW 1020,2 -
13.01.2021 17:00:00 5,1 -2,3 4 2 SSW 1020,1 -
13.01.2021 16:00:00 9,1 -0,6 2 1 SSW 1019,6 -
13.01.2021 15:00:00 8,5 -0,4 4 2 WSW 1019,3 -
13.01.2021 14:00:00 7,5 1,1 4 2 NW 1019,1 -
13.01.2021 13:00:00 6,2 0,5 8 4 N 1019,3 0,0
13.01.2021 12:00:00 5,0 0,5 9 5 N 1019,4 -
13.01.2021 11:00:00 2,6 0,8 8 4 NNE 1019,5 -
13.01.2021 10:00:00 0,1 -1,8 5 3 NNW 1019,6 -
13.01.2021 09:00:00 -2,0 -3,4 5 3 NNW 1018,9 -
13.01.2021 08:00:00 -3,3 -4,7 2 1 NNW 1018,3 -
13.01.2021 07:00:00 -3,3 -4,7 5 3 NNW 1017,5 0,0
13.01.2021 06:00:00 -3,2 -4,6 4 2 NW 1017,3 -

tt = temperature
td = dewpoint
ff = wind speed
dd = wind direction
ppp = reduced air pressure
rr = precipitation

Next stations